Terminal Aerodrome Forecast
Issued by NWS Newport/Morehead City, NC

Home | Current Version | Previous Version | Text Only | Print | Product List | Glossary Off
Versions: 1 2 3 4 5 6 7 8 9 10 11 12

752
FTUS42 KMHX 222325
TAFEWN
TAF
KEWN 222325Z 2300/2324 VRB03KT P6SM SKC
     FM231400 04007KT P6SM FEW040=

USA.gov is the U.S. government's official web portal to all federal, state and local government web resources and services.